Amherst, Texas
Current Conditions -  °F | °C
As of 4:15 PM on Tuesday 25 Nov 2014 (Local Time) from KPVW Reporting Station
Clear Clear  
Wind Chill: 13°   Ceiling: Unl
Heat Index: 13°   Visibility: 10mi
Dew Point: -10°   Wind: 21mph
Humidity: 19%   Direction: 250°WSW
Pressure: 30.08"   Gusts: 30mph
Location:  34.01°N, 102.42°W
Report Text: KPVW 252215Z AUTO 25018G26KT 10SM CLR 13/M10 A3008 RMK AO2 T01271103
Loading
Personal Weather Stations






























Interactive Weather Map New forecast layout! Learn more

10-Day Weather Forecast

Advertisements
Track Severe Weather on mobile